createdAt,value
2017-10-31T00:00:51.598Z,1019.15
2017-10-31T00:01:51.582Z,1019.18
2017-10-31T00:02:51.560Z,1019.12
2017-10-31T00:03:51.543Z,1019.08
2017-10-31T00:04:51.624Z,1019.04
2017-10-31T00:05:51.506Z,1019.02
2017-10-31T00:06:51.486Z,1019.04
2017-10-31T00:07:51.469Z,1019.02
2017-10-31T00:08:51.459Z,1019.08
2017-10-31T00:09:51.428Z,1019.07
2017-10-31T00:10:51.407Z,1019.05
2017-10-31T00:11:51.390Z,1019.06
2017-10-31T00:12:51.370Z,1019.09
2017-10-31T00:13:51.350Z,1019.07
2017-10-31T00:14:51.333Z,1019.04
2017-10-31T00:15:51.314Z,1019.05
2017-10-31T00:16:51.293Z,1019.05
2017-10-31T00:17:51.273Z,1019.08
2017-10-31T00:18:51.255Z,1019.04
2017-10-31T00:19:51.237Z,1019.02
2017-10-31T00:20:51.216Z,1019.01
2017-10-31T00:21:51.200Z,1018.98
2017-10-31T00:22:51.180Z,1019.04
2017-10-31T00:23:51.162Z,1019
2017-10-31T00:24:51.140Z,1018.96
2017-10-31T00:25:51.123Z,1019.01
2017-10-31T00:26:51.105Z,1019.01
2017-10-31T00:27:51.091Z,1019.01
2017-10-31T00:28:51.068Z,1018.99
2017-10-31T00:29:51.048Z,1019.03
2017-10-31T00:30:51.028Z,1019.04
2017-10-31T00:31:51.012Z,1019.01
2017-10-31T00:32:50.990Z,1018.96
2017-10-31T00:33:50.983Z,1018.97
2017-10-31T00:34:50.960Z,1019.01
2017-10-31T00:35:50.932Z,1018.99
2017-10-31T00:36:50.914Z,1018.99
2017-10-31T00:37:50.898Z,1018.97
2017-10-31T00:38:50.878Z,1019.02
2017-10-31T00:39:50.861Z,1019.02
2017-10-31T00:40:50.836Z,1019
2017-10-31T00:41:50.822Z,1018.96
2017-10-31T00:42:50.802Z,1018.98
2017-10-31T00:43:50.781Z,1018.97
2017-10-31T00:44:50.766Z,1018.99
2017-10-31T00:45:50.744Z,1018.97
2017-10-31T00:46:50.725Z,1018.95
2017-10-31T00:47:50.704Z,1018.96
2017-10-31T00:48:50.688Z,1018.96
2017-10-31T00:49:50.671Z,1018.95
2017-10-31T00:50:50.649Z,1018.91
2017-10-31T00:51:50.631Z,1018.93
2017-10-31T00:52:50.611Z,1018.94
2017-10-31T00:53:50.593Z,1018.95
2017-10-31T00:54:50.574Z,1018.95
2017-10-31T00:55:50.554Z,1018.97
2017-10-31T00:56:50.538Z,1018.95
2017-10-31T00:57:50.522Z,1018.94
2017-10-31T00:58:50.497Z,1018.99
2017-10-31T00:59:50.484Z,1018.96
2017-10-31T01:00:50.461Z,1018.98
2017-10-31T01:01:50.442Z,1019.03
2017-10-31T01:02:50.423Z,1019
2017-10-31T01:03:50.403Z,1019.03
2017-10-31T01:04:50.383Z,1019.03
2017-10-31T01:05:50.365Z,1019.01
2017-10-31T01:06:50.349Z,1019
2017-10-31T01:07:50.329Z,1019.01
2017-10-31T01:08:50.307Z,1019.05
2017-10-31T01:09:50.291Z,1019.03
2017-10-31T01:10:50.270Z,1019.05
2017-10-31T01:11:50.250Z,1019.01
2017-10-31T01:12:50.234Z,1019.06
2017-10-31T01:13:50.217Z,1019.02
2017-10-31T01:14:50.192Z,1019.02
2017-10-31T01:15:50.276Z,1019.02
2017-10-31T01:16:50.154Z,1019.09
2017-10-31T01:17:50.133Z,1019.05
2017-10-31T01:18:50.117Z,1019.06
2017-10-31T01:19:50.095Z,1019.07
2017-10-31T01:20:50.079Z,1019.04
2017-10-31T01:21:50.058Z,1019.01
2017-10-31T01:22:50.038Z,1019.01
2017-10-31T01:23:50.018Z,1018.96
2017-10-31T01:24:50.000Z,1018.95
2017-10-31T01:25:49.980Z,1018.97
2017-10-31T01:26:49.962Z,1018.93
2017-10-31T01:27:49.943Z,1018.96
2017-10-31T01:28:49.927Z,1018.93
2017-10-31T01:29:49.903Z,1018.93
2017-10-31T01:30:49.883Z,1018.94
2017-10-31T01:31:49.866Z,1018.8
2017-10-31T01:32:49.849Z,1018.77
2017-10-31T01:33:49.828Z,1018.71
2017-10-31T01:34:49.814Z,1018.72
2017-10-31T01:35:49.790Z,1018.68
2017-10-31T01:36:49.773Z,1018.66
2017-10-31T01:37:49.749Z,1018.62
2017-10-31T01:38:49.730Z,1018.6
2017-10-31T01:39:49.713Z,1018.72
2017-10-31T01:40:49.692Z,1018.68
2017-10-31T01:41:49.677Z,1018.68
2017-10-31T01:42:49.656Z,1018.65
2017-10-31T01:43:49.645Z,1018.69
2017-10-31T01:44:49.616Z,1018.68
2017-10-31T01:45:49.602Z,1018.68
2017-10-31T01:46:49.605Z,1018.69
2017-10-31T01:47:49.559Z,1018.72
2017-10-31T01:48:49.541Z,1018.67
2017-10-31T01:49:49.524Z,1018.66
2017-10-31T01:50:49.504Z,1018.66
2017-10-31T01:51:49.483Z,1018.67
2017-10-31T01:52:49.470Z,1018.72
2017-10-31T01:53:49.447Z,1018.67
2017-10-31T01:54:49.430Z,1018.66
2017-10-31T01:55:49.413Z,1018.64
2017-10-31T01:56:49.388Z,1018.7
2017-10-31T01:57:49.374Z,1018.69
2017-10-31T01:58:49.350Z,1018.72
2017-10-31T01:59:49.333Z,1018.7
2017-10-31T02:00:49.311Z,1018.71
2017-10-31T02:01:49.296Z,1018.71
2017-10-31T02:02:49.273Z,1018.74
2017-10-31T02:03:49.257Z,1018.76
2017-10-31T02:04:49.239Z,1018.78
2017-10-31T02:05:49.217Z,1018.73
2017-10-31T02:06:49.199Z,1018.75
2017-10-31T02:07:49.179Z,1018.8
2017-10-31T02:08:49.165Z,1018.76
2017-10-31T02:09:49.149Z,1018.75
2017-10-31T02:10:49.122Z,1018.8
2017-10-31T02:11:49.105Z,1018.79
2017-10-31T02:12:49.094Z,1018.76
2017-10-31T02:13:49.068Z,1018.79
2017-10-31T02:14:49.049Z,1018.81
2017-10-31T02:15:49.032Z,1018.84
2017-10-31T02:16:49.012Z,1018.83
2017-10-31T02:17:48.998Z,1018.81
2017-10-31T02:18:48.975Z,1018.75
2017-10-31T02:19:48.956Z,1018.75
2017-10-31T02:20:48.936Z,1018.73
2017-10-31T02:21:48.921Z,1018.76
2017-10-31T02:22:48.899Z,1018.68
2017-10-31T02:23:48.881Z,1018.71
2017-10-31T02:24:48.860Z,1018.68
2017-10-31T02:25:48.843Z,1018.66
2017-10-31T02:26:48.825Z,1018.66
2017-10-31T02:27:48.809Z,1018.67
2017-10-31T02:28:48.789Z,1018.71
2017-10-31T02:29:48.770Z,1018.68
2017-10-31T02:30:48.753Z,1018.67
2017-10-31T02:31:48.849Z,1018.67
2017-10-31T02:32:48.718Z,1018.66
2017-10-31T02:33:48.696Z,1018.68
2017-10-31T02:34:48.679Z,1018.67
2017-10-31T02:35:48.663Z,1018.66
2017-10-31T02:36:48.658Z,1018.68
2017-10-31T02:37:48.624Z,1018.65
2017-10-31T02:38:48.611Z,1018.65
2017-10-31T02:39:48.582Z,1018.68
2017-10-31T02:40:48.566Z,1018.7
2017-10-31T02:41:48.545Z,1018.68
2017-10-31T02:42:48.531Z,1018.7
2017-10-31T02:43:48.508Z,1018.67
2017-10-31T02:44:48.491Z,1018.7
2017-10-31T02:45:48.470Z,1018.67
2017-10-31T02:46:48.453Z,1018.6
2017-10-31T02:47:48.434Z,1018.62
2017-10-31T02:48:48.417Z,1018.6
2017-10-31T02:49:48.402Z,1018.59
2017-10-31T02:50:48.376Z,1018.56
2017-10-31T02:51:48.360Z,1018.49
2017-10-31T02:52:48.341Z,1018.52
2017-10-31T02:53:48.320Z,1018.52
2017-10-31T02:54:48.301Z,1018.45
2017-10-31T02:55:48.283Z,1018.44
2017-10-31T02:56:48.263Z,1018.44
2017-10-31T02:57:48.244Z,1018.4
2017-10-31T02:58:48.226Z,1018.4
2017-10-31T02:59:48.209Z,1018.39
2017-10-31T03:00:48.191Z,1018.38
2017-10-31T03:01:48.170Z,1018.38
2017-10-31T03:02:48.150Z,1018.39
2017-10-31T03:03:48.133Z,1018.38
2017-10-31T03:04:48.111Z,1018.37
2017-10-31T03:05:48.102Z,1018.35
2017-10-31T03:06:48.076Z,1018.39
2017-10-31T03:07:48.056Z,1018.41
2017-10-31T03:08:48.036Z,1018.38
2017-10-31T03:09:48.018Z,1018.38
2017-10-31T03:10:48.001Z,1018.37
2017-10-31T03:11:47.983Z,1018.39
2017-10-31T03:12:47.961Z,1018.39
2017-10-31T03:13:47.944Z,1018.37
2017-10-31T03:14:47.924Z,1018.4
2017-10-31T03:15:47.906Z,1018.37
2017-10-31T03:16:47.886Z,1018.38
2017-10-31T03:17:47.875Z,1018.37
2017-10-31T03:18:47.849Z,1018.34
2017-10-31T03:19:47.834Z,1018.3
2017-10-31T03:20:47.811Z,1018.3
2017-10-31T03:21:47.793Z,1018.33
2017-10-31T03:22:47.775Z,1018.3
2017-10-31T03:23:47.754Z,1018.28
2017-10-31T03:24:47.736Z,1018.25
2017-10-31T03:25:47.719Z,1018.24
2017-10-31T03:26:47.699Z,1018.22
2017-10-31T03:27:47.781Z,1018.2
2017-10-31T03:28:47.659Z,1018.13
2017-10-31T03:29:47.642Z,1018.2
2017-10-31T03:30:47.624Z,1018.18
2017-10-31T03:31:47.603Z,1018.15
2017-10-31T03:32:47.584Z,1018.18
2017-10-31T03:33:47.768Z,1018.14
2017-10-31T03:34:47.552Z,1018.17
2017-10-31T03:35:47.529Z,1018.2
2017-10-31T03:36:47.517Z,1018.19
2017-10-31T03:37:47.492Z,1018.21
2017-10-31T03:38:47.490Z,1018.23
2017-10-31T03:39:47.456Z,1018.24
2017-10-31T03:40:47.436Z,1018.21
2017-10-31T03:41:47.416Z,1018.23
2017-10-31T03:42:47.403Z,1018.23
2017-10-31T03:43:47.379Z,1018.24
2017-10-31T03:44:47.376Z,1018.2
2017-10-31T03:45:47.343Z,1018.2
2017-10-31T03:46:47.345Z,1018.2
2017-10-31T03:47:47.304Z,1018.27
2017-10-31T03:48:47.286Z,1018.29
2017-10-31T03:49:47.269Z,1018.31
2017-10-31T03:50:47.250Z,1018.34
2017-10-31T03:51:47.231Z,1018.3
2017-10-31T03:52:47.213Z,1018.29
2017-10-31T03:53:47.194Z,1018.26
2017-10-31T03:54:47.175Z,1018.3
2017-10-31T03:55:47.158Z,1018.29
2017-10-31T03:56:47.135Z,1018.3
2017-10-31T03:57:47.125Z,1018.28
2017-10-31T03:58:47.103Z,1018.32
2017-10-31T03:59:47.079Z,1018.31
2017-10-31T04:00:47.063Z,1018.26
2017-10-31T04:01:47.050Z,1018.27
2017-10-31T04:02:47.028Z,1018.32
2017-10-31T04:03:47.009Z,1018.3
2017-10-31T04:04:46.997Z,1018.26
2017-10-31T04:05:46.971Z,1018.26
2017-10-31T04:06:46.952Z,1018.24
2017-10-31T04:07:46.934Z,1018.25
2017-10-31T04:08:46.916Z,1018.24
2017-10-31T04:09:46.899Z,1018.22
2017-10-31T04:10:46.879Z,1018.21
2017-10-31T04:11:46.858Z,1018.29
2017-10-31T04:12:46.841Z,1018.27
2017-10-31T04:13:46.822Z,1018.28
2017-10-31T04:14:46.803Z,1018.25
2017-10-31T04:15:46.783Z,1018.25
2017-10-31T04:16:46.767Z,1018.25
2017-10-31T04:17:46.747Z,1018.27
2017-10-31T04:18:46.728Z,1018.24
2017-10-31T04:19:46.709Z,1018.26
2017-10-31T04:20:46.695Z,1018.23
2017-10-31T04:21:46.670Z,1018.2
2017-10-31T04:22:46.654Z,1018.21
2017-10-31T04:23:46.635Z,1018.2
2017-10-31T04:24:46.618Z,1018.19
2017-10-31T04:25:46.597Z,1018.24
2017-10-31T04:26:46.577Z,1018.17
2017-10-31T04:27:46.560Z,1018.18
2017-10-31T04:28:46.545Z,1018.19
2017-10-31T04:29:46.526Z,1018.15
2017-10-31T04:30:46.505Z,1018.23
2017-10-31T04:31:46.490Z,1018.21
2017-10-31T04:32:46.468Z,1018.17
2017-10-31T04:33:46.450Z,1018.18
2017-10-31T04:34:46.429Z,1018.16
2017-10-31T04:35:46.409Z,1018.21
2017-10-31T04:36:46.391Z,1018.19
2017-10-31T04:37:46.375Z,1018.16
2017-10-31T04:38:46.474Z,1018.13
2017-10-31T04:39:46.336Z,1018.14
2017-10-31T04:40:46.318Z,1018.13
2017-10-31T04:41:46.298Z,1018.12
2017-10-31T04:42:46.277Z,1018.13
2017-10-31T04:43:46.260Z,1018.12
2017-10-31T04:44:46.240Z,1018.14
2017-10-31T04:45:46.233Z,1018.09
2017-10-31T04:46:46.203Z,1018.09
2017-10-31T04:47:46.187Z,1018.11
2017-10-31T04:48:46.167Z,1018.08
2017-10-31T04:49:46.147Z,1018.08
2017-10-31T04:50:46.130Z,1018.09
2017-10-31T04:51:46.110Z,1018.04
2017-10-31T04:52:46.107Z,1018.06
2017-10-31T04:53:46.072Z,1018.09
2017-10-31T04:54:46.057Z,1018.11
2017-10-31T04:55:46.034Z,1018.1
2017-10-31T04:56:46.015Z,1018.06
2017-10-31T04:57:45.994Z,1018.08
2017-10-31T04:58:45.977Z,1018.09
2017-10-31T04:59:45.976Z,1018.09
2017-10-31T05:00:45.940Z,1018.09
2017-10-31T05:01:45.919Z,1018.05
2017-10-31T05:02:45.900Z,1018.05
2017-10-31T05:03:45.883Z,1018.08
2017-10-31T05:04:45.865Z,1018.06
2017-10-31T05:05:45.852Z,1018.07
2017-10-31T05:06:45.830Z,1018.05
2017-10-31T05:07:45.806Z,1018.04
2017-10-31T05:08:45.789Z,1018.03
2017-10-31T05:09:45.772Z,1018
2017-10-31T05:10:45.752Z,1018
2017-10-31T05:11:45.733Z,1017.98
2017-10-31T05:12:45.713Z,1017.98
2017-10-31T05:13:45.694Z,1017.96
2017-10-31T05:14:45.676Z,1017.95
2017-10-31T05:15:45.659Z,1017.96
2017-10-31T05:16:45.642Z,1017.98
2017-10-31T05:17:45.624Z,1017.92
2017-10-31T05:18:45.601Z,1017.94
2017-10-31T05:19:45.582Z,1017.99
2017-10-31T05:20:45.566Z,1017.98
2017-10-31T05:21:45.556Z,1018
2017-10-31T05:22:45.533Z,1017.98
2017-10-31T05:23:45.510Z,1017.95
2017-10-31T05:24:45.490Z,1018.01
2017-10-31T05:25:45.472Z,1017.95
2017-10-31T05:26:45.466Z,1018.01
2017-10-31T05:27:45.433Z,1017.96
2017-10-31T05:28:45.413Z,1018.01
2017-10-31T05:29:45.395Z,1018
2017-10-31T05:30:45.379Z,1017.97
2017-10-31T05:31:45.357Z,1017.97
2017-10-31T05:32:45.339Z,1017.99
2017-10-31T05:33:45.523Z,1017.99
2017-10-31T05:34:45.401Z,1017.98
2017-10-31T05:35:45.283Z,1017.98
2017-10-31T05:36:45.469Z,1017.99
2017-10-31T05:37:45.247Z,1017.98
2017-10-31T05:38:45.241Z,1018.01
2017-10-31T05:39:45.260Z,1018.02
2017-10-31T05:40:45.193Z,1018.01
2017-10-31T05:41:45.175Z,1018.05
2017-10-31T05:42:45.158Z,1018.06
2017-10-31T05:43:45.135Z,1018.09
2017-10-31T05:44:45.117Z,1018.05
2017-10-31T05:45:45.097Z,1018.02
2017-10-31T05:46:45.110Z,1018.01
2017-10-31T05:47:45.062Z,1018.03
2017-10-31T05:48:45.044Z,1018.02
2017-10-31T05:49:45.022Z,1017.99
2017-10-31T05:50:45.004Z,1017.99
2017-10-31T05:51:44.985Z,1018.01
2017-10-31T05:52:44.967Z,1018.02
2017-10-31T05:53:44.951Z,1017.96
2017-10-31T05:54:44.932Z,1018
2017-10-31T05:55:44.913Z,1018.01
2017-10-31T05:56:44.895Z,1018
2017-10-31T05:57:44.874Z,1018
2017-10-31T05:58:44.862Z,1017.97
2017-10-31T05:59:44.835Z,1018
2017-10-31T06:00:44.820Z,1018
2017-10-31T06:01:44.799Z,1017.99
2017-10-31T06:02:44.782Z,1017.98
2017-10-31T06:03:44.764Z,1018.02
2017-10-31T06:04:44.745Z,1017.98
2017-10-31T06:05:44.731Z,1018
2017-10-31T06:06:44.706Z,1018.02
2017-10-31T06:07:44.691Z,1017.99
2017-10-31T06:08:44.669Z,1017.96
2017-10-31T06:09:44.657Z,1018
2017-10-31T06:10:44.633Z,1017.97
2017-10-31T06:11:44.613Z,1017.96
2017-10-31T06:12:44.596Z,1017.96
2017-10-31T06:13:44.580Z,1018
2017-10-31T06:14:44.556Z,1017.97
2017-10-31T06:15:44.541Z,1017.9
2017-10-31T06:16:44.524Z,1017.92
2017-10-31T06:17:44.503Z,1017.88
2017-10-31T06:18:44.483Z,1017.9
2017-10-31T06:19:44.465Z,1017.91
2017-10-31T06:20:44.448Z,1017.93
2017-10-31T06:21:44.428Z,1017.93
2017-10-31T06:22:44.420Z,1017.9
2017-10-31T06:23:44.391Z,1017.96
2017-10-31T06:24:44.375Z,1017.95
2017-10-31T06:25:44.359Z,1017.96
2017-10-31T06:26:44.337Z,1017.97
2017-10-31T06:27:44.325Z,1017.97
2017-10-31T06:28:44.300Z,1017.96
2017-10-31T06:29:44.281Z,1018.03
2017-10-31T06:30:44.262Z,1018.03
2017-10-31T06:31:44.256Z,1018.04
2017-10-31T06:32:44.225Z,1018.04
2017-10-31T06:33:44.207Z,1018.02
2017-10-31T06:34:44.190Z,1018.04
2017-10-31T06:35:44.174Z,1018.03
2017-10-31T06:36:44.150Z,1018.04
2017-10-31T06:37:44.132Z,1018.05
2017-10-31T06:38:44.115Z,1018.06
2017-10-31T06:39:44.100Z,1018.04
2017-10-31T06:40:44.177Z,1018.04
2017-10-31T06:41:44.060Z,1018.06
2017-10-31T06:42:44.039Z,1018.08
2017-10-31T06:43:44.035Z,1018.11
2017-10-31T06:44:44.016Z,1018.13
2017-10-31T06:45:43.983Z,1018.1
2017-10-31T06:46:43.965Z,1018.12
2017-10-31T06:47:43.950Z,1018.16
2017-10-31T06:48:43.927Z,1018.18
2017-10-31T06:49:43.912Z,1018.2
2017-10-31T06:50:43.894Z,1018.2
2017-10-31T06:51:43.880Z,1018.21
2017-10-31T06:52:43.856Z,1018.19
2017-10-31T06:53:43.838Z,1018.2
2017-10-31T06:54:43.817Z,1018.21
2017-10-31T06:55:43.800Z,1018.2
2017-10-31T06:56:43.780Z,1018.22
2017-10-31T06:57:43.768Z,1018.25
2017-10-31T06:58:43.745Z,1018.26
2017-10-31T06:59:43.728Z,1018.28
2017-10-31T07:00:43.710Z,1018.32
2017-10-31T07:01:43.693Z,1018.29
2017-10-31T07:02:43.670Z,1018.35
2017-10-31T07:03:43.653Z,1018.33
2017-10-31T07:04:43.637Z,1018.3
2017-10-31T07:05:43.617Z,1018.36
2017-10-31T07:06:43.599Z,1018.37
2017-10-31T07:07:43.584Z,1018.31
2017-10-31T07:08:43.565Z,1018.32
2017-10-31T07:09:43.551Z,1018.28
2017-10-31T07:10:43.524Z,1018.32
2017-10-31T07:11:43.506Z,1018.3
2017-10-31T07:12:43.488Z,1018.27
2017-10-31T07:13:43.469Z,1018.25
2017-10-31T07:14:43.453Z,1018.24
2017-10-31T07:15:43.443Z,1018.2
2017-10-31T07:16:43.414Z,1018.24
2017-10-31T07:17:43.397Z,1018.27
2017-10-31T07:18:43.379Z,1018.23
2017-10-31T07:19:43.364Z,1018.24
2017-10-31T07:20:43.341Z,1018.25
2017-10-31T07:21:43.326Z,1018.25
2017-10-31T07:22:43.308Z,1018.23
2017-10-31T07:23:43.287Z,1018.2
2017-10-31T07:24:43.271Z,1018.24
2017-10-31T07:25:43.255Z,1018.23
2017-10-31T07:26:43.233Z,1018.24
2017-10-31T07:27:43.226Z,1018.23
2017-10-31T07:28:43.198Z,1018.28
2017-10-31T07:29:43.180Z,1018.27
2017-10-31T07:30:43.165Z,1018.3
2017-10-31T07:31:43.143Z,1018.29
2017-10-31T07:32:43.128Z,1018.3
2017-10-31T07:33:43.309Z,1018.3
2017-10-31T07:34:43.087Z,1018.24
2017-10-31T07:35:43.071Z,1018.26
2017-10-31T07:36:43.052Z,1018.26
2017-10-31T07:37:43.043Z,1018.24
2017-10-31T07:38:43.014Z,1018.23
2017-10-31T07:39:42.998Z,1018.24
2017-10-31T07:40:42.980Z,1018.24
2017-10-31T07:41:42.976Z,1018.26
2017-10-31T07:42:42.943Z,1018.23
2017-10-31T07:43:42.929Z,1018.19
2017-10-31T07:44:42.908Z,1018.24
2017-10-31T07:45:42.895Z,1018.22
2017-10-31T07:46:42.874Z,1018.25
2017-10-31T07:47:42.855Z,1018.22
2017-10-31T07:48:42.839Z,1018.22
2017-10-31T07:49:42.821Z,1018.25
2017-10-31T07:50:42.801Z,1018.28
2017-10-31T07:51:42.784Z,1018.24
2017-10-31T07:52:42.770Z,1018.23
2017-10-31T07:53:42.750Z,1018.22
2017-10-31T07:54:42.730Z,1018.24
2017-10-31T07:55:42.714Z,1018.22
2017-10-31T07:56:42.694Z,1018.22
2017-10-31T07:57:42.677Z,1018.22
2017-10-31T07:58:42.661Z,1018.24
2017-10-31T07:59:42.643Z,1018.22
2017-10-31T08:00:42.631Z,1018.22
2017-10-31T08:01:42.608Z,1018.22
2017-10-31T08:02:42.591Z,1018.21
2017-10-31T08:03:42.572Z,1018.16
2017-10-31T08:04:42.553Z,1018.2
2017-10-31T08:05:42.538Z,1018.2
2017-10-31T08:06:42.519Z,1018.22
2017-10-31T08:07:42.502Z,1018.2
2017-10-31T08:08:42.484Z,1018.24
2017-10-31T08:09:42.469Z,1018.26
2017-10-31T08:10:42.449Z,1018.23
2017-10-31T08:11:42.432Z,1018.28
2017-10-31T08:12:42.415Z,1018.26
2017-10-31T08:13:42.397Z,1018.28
2017-10-31T08:14:42.382Z,1018.3
2017-10-31T08:15:42.365Z,1018.3
2017-10-31T08:16:42.345Z,1018.3
2017-10-31T08:17:42.326Z,1018.31
2017-10-31T08:18:42.307Z,1018.29
2017-10-31T08:19:42.293Z,1018.31
2017-10-31T08:20:42.275Z,1018.27
2017-10-31T08:21:42.257Z,1018.34
2017-10-31T08:22:42.238Z,1018.31
2017-10-31T08:23:42.221Z,1018.32
2017-10-31T08:24:42.205Z,1018.34
2017-10-31T08:25:42.191Z,1018.35
2017-10-31T08:26:42.169Z,1018.32
2017-10-31T08:27:42.153Z,1018.29
2017-10-31T08:28:42.142Z,1018.33
2017-10-31T08:29:42.131Z,1018.29
2017-10-31T08:30:42.101Z,1018.29
2017-10-31T08:31:42.083Z,1018.28
2017-10-31T08:32:42.067Z,1018.29
2017-10-31T08:33:42.048Z,1018.28
2017-10-31T08:34:42.031Z,1018.29
2017-10-31T08:35:42.014Z,1018.28
2017-10-31T08:36:42.000Z,1018.22
2017-10-31T08:37:41.978Z,1018.16
2017-10-31T08:38:41.962Z,1018.11
2017-10-31T08:39:41.944Z,1018.14
2017-10-31T08:40:41.926Z,1018.17
2017-10-31T08:41:41.911Z,1018.11
2017-10-31T08:42:41.892Z,1018.19
2017-10-31T08:43:41.890Z,1018.13
2017-10-31T08:44:41.858Z,1018.11
2017-10-31T08:45:41.840Z,1018.12
2017-10-31T08:46:41.824Z,1018.1
2017-10-31T08:47:41.812Z,1018.09
2017-10-31T08:48:41.789Z,1018.1
2017-10-31T08:49:41.781Z,1018.11
2017-10-31T08:50:41.756Z,1018.1
2017-10-31T08:51:41.738Z,1018.15
2017-10-31T08:52:41.719Z,1018.13
2017-10-31T08:53:41.706Z,1018.14
2017-10-31T08:54:41.687Z,1018.13
2017-10-31T08:55:41.669Z,1018.1
2017-10-31T08:56:41.657Z,1018.06
2017-10-31T08:57:41.738Z,1018.07
2017-10-31T08:58:41.619Z,1018.03
2017-10-31T08:59:41.606Z,1017.99
2017-10-31T09:00:41.584Z,1018.03
2017-10-31T09:01:41.580Z,1018.06
2017-10-31T09:02:41.551Z,1018.05
2017-10-31T09:03:41.535Z,1018.11
2017-10-31T09:04:41.519Z,1018.13
2017-10-31T09:05:41.501Z,1018.14
2017-10-31T09:06:41.488Z,1018.16
2017-10-31T09:07:41.568Z,1018.16
2017-10-31T09:08:41.452Z,1018.16
2017-10-31T09:09:41.435Z,1018.18
2017-10-31T09:10:41.420Z,1018.16
2017-10-31T09:11:41.401Z,1018.2
2017-10-31T09:12:41.390Z,1018.23
2017-10-31T09:13:41.369Z,1018.23
2017-10-31T09:14:41.355Z,1018.21
2017-10-31T09:15:41.344Z,1018.23
2017-10-31T09:16:41.319Z,1018.19
2017-10-31T09:17:41.305Z,1018.15
2017-10-31T09:18:41.287Z,1018.17
2017-10-31T09:19:41.272Z,1018.18
2017-10-31T09:20:41.251Z,1018.18
2017-10-31T09:21:41.235Z,1018.16
2017-10-31T09:22:41.223Z,1018.16
2017-10-31T09:23:41.214Z,1018.13
2017-10-31T09:24:41.185Z,1018.11
2017-10-31T09:25:41.173Z,1018.15
2017-10-31T09:26:41.154Z,1018.17
2017-10-31T09:27:41.137Z,1018.2
2017-10-31T09:28:41.120Z,1018.2
2017-10-31T09:29:41.106Z,1018.21
2017-10-31T09:30:41.087Z,1018.17
2017-10-31T09:31:41.070Z,1018.2
2017-10-31T09:32:41.052Z,1018.21
2017-10-31T09:33:41.238Z,1018.16
2017-10-31T09:34:41.019Z,1018.19
2017-10-31T09:35:41.002Z,1018.15
2017-10-31T09:36:40.984Z,1018.14
2017-10-31T09:37:40.968Z,1018.17
2017-10-31T09:38:40.954Z,1018.18
2017-10-31T09:39:40.934Z,1018.18
2017-10-31T09:40:40.917Z,1018.08
2017-10-31T09:41:40.900Z,1018.2
2017-10-31T09:42:40.885Z,1018.12
2017-10-31T09:43:40.866Z,1018.16
2017-10-31T09:44:40.850Z,1018.12
2017-10-31T09:45:40.836Z,1018.07
2017-10-31T09:46:40.815Z,1018.05
2017-10-31T09:47:40.802Z,1018.08
2017-10-31T09:48:40.784Z,1018.01
2017-10-31T09:49:40.769Z,1018.05
2017-10-31T09:50:40.749Z,1018.05
2017-10-31T09:51:40.732Z,1018.11
2017-10-31T09:52:40.717Z,1018.05
2017-10-31T09:53:40.699Z,1018.09
2017-10-31T09:54:40.682Z,1018.1
2017-10-31T09:55:40.664Z,1018.03
2017-10-31T09:56:40.651Z,1018.03
2017-10-31T09:57:40.631Z,1018.05
2017-10-31T09:58:40.614Z,1018.03
2017-10-31T09:59:40.598Z,1018
2017-10-31T10:00:40.580Z,1017.97
2017-10-31T10:01:40.564Z,1017.98
2017-10-31T10:02:40.548Z,1017.99
2017-10-31T10:03:40.529Z,1017.99
2017-10-31T10:04:40.512Z,1017.95
2017-10-31T10:05:40.498Z,1018.01
2017-10-31T10:06:40.480Z,1017.98
2017-10-31T10:07:40.464Z,1017.95
2017-10-31T10:08:40.447Z,1018.02
2017-10-31T10:09:40.428Z,1018.01
2017-10-31T10:10:40.413Z,1018.01
2017-10-31T10:11:40.398Z,1018.01
2017-10-31T10:12:40.383Z,1018.03
2017-10-31T10:13:40.362Z,1018.02
2017-10-31T10:14:40.349Z,1018.07
2017-10-31T10:15:40.328Z,1018.02
2017-10-31T10:16:40.311Z,1017.99
2017-10-31T10:17:40.297Z,1018.01
2017-10-31T10:18:40.280Z,1018.05
2017-10-31T10:19:40.263Z,1018.03
2017-10-31T10:20:40.247Z,1018.03
2017-10-31T10:21:40.231Z,1018.01
2017-10-31T10:22:40.212Z,1018.05
2017-10-31T10:23:40.196Z,1018.03
2017-10-31T10:24:40.180Z,1018.07
2017-10-31T10:25:40.167Z,1018.03
2017-10-31T10:26:40.148Z,1018.03
2017-10-31T10:27:40.131Z,1018.04
2017-10-31T10:28:40.114Z,1018.02
2017-10-31T10:29:40.097Z,1018.02
2017-10-31T10:30:40.083Z,1018.02
2017-10-31T10:31:40.078Z,1018
2017-10-31T10:32:40.054Z,1018
2017-10-31T10:33:40.032Z,1017.97
2017-10-31T10:34:40.018Z,1017.97
2017-10-31T10:35:39.999Z,1017.96
2017-10-31T10:36:39.987Z,1017.96
2017-10-31T10:37:39.967Z,1017.94
2017-10-31T10:38:39.949Z,1017.96
2017-10-31T10:39:39.934Z,1017.96
2017-10-31T10:40:39.918Z,1017.92
2017-10-31T10:41:39.902Z,1017.91
2017-10-31T10:42:39.885Z,1017.92
2017-10-31T10:43:39.868Z,1017.91
2017-10-31T10:44:39.851Z,1017.88
2017-10-31T10:45:39.835Z,1017.91
2017-10-31T10:46:39.821Z,1017.84
2017-10-31T10:47:39.806Z,1017.83
2017-10-31T10:48:39.785Z,1017.86
2017-10-31T10:49:39.771Z,1017.81
2017-10-31T10:50:39.752Z,1017.82
2017-10-31T10:51:39.737Z,1017.81
2017-10-31T10:52:39.722Z,1017.77
2017-10-31T10:53:39.704Z,1017.73
2017-10-31T10:54:39.687Z,1017.73
2017-10-31T10:55:39.673Z,1017.78
2017-10-31T10:56:39.654Z,1017.72
2017-10-31T10:57:39.640Z,1017.68
2017-10-31T10:58:39.624Z,1017.7
2017-10-31T10:59:39.608Z,1017.71
2017-10-31T11:00:39.591Z,1017.64
2017-10-31T11:01:39.575Z,1017.66
2017-10-31T11:02:39.556Z,1017.59
2017-10-31T11:03:39.541Z,1017.57
2017-10-31T11:04:39.527Z,1017.58
2017-10-31T11:05:39.509Z,1017.59
2017-10-31T11:06:39.493Z,1017.6
2017-10-31T11:07:39.476Z,1017.6
2017-10-31T11:08:39.460Z,1017.58
2017-10-31T11:09:39.443Z,1017.56
2017-10-31T11:10:39.430Z,1017.63
2017-10-31T11:11:39.412Z,1017.61
2017-10-31T11:12:39.398Z,1017.58
2017-10-31T11:13:39.383Z,1017.57
2017-10-31T11:14:39.370Z,1017.56
2017-10-31T11:15:39.353Z,1017.52
2017-10-31T11:16:39.335Z,1017.48
2017-10-31T11:17:39.317Z,1017.49
2017-10-31T11:18:39.301Z,1017.46
2017-10-31T11:19:39.286Z,1017.48
2017-10-31T11:20:39.271Z,1017.45
2017-10-31T11:21:39.254Z,1017.4
2017-10-31T11:22:39.241Z,1017.44
2017-10-31T11:23:39.224Z,1017.39
2017-10-31T11:24:39.208Z,1017.33
2017-10-31T11:25:39.191Z,1017.42
2017-10-31T11:26:39.179Z,1017.37
2017-10-31T11:27:39.161Z,1017.39
2017-10-31T11:28:39.148Z,1017.39
2017-10-31T11:29:39.128Z,1017.38
2017-10-31T11:30:39.116Z,1017.38
2017-10-31T11:31:39.097Z,1017.37
2017-10-31T11:32:39.079Z,1017.36
2017-10-31T11:33:39.267Z,1017.36
2017-10-31T11:34:39.051Z,1017.36
2017-10-31T11:35:39.034Z,1017.33
2017-10-31T11:36:39.018Z,1017.34
2017-10-31T11:37:39.003Z,1017.34
2017-10-31T11:38:38.984Z,1017.32
2017-10-31T11:39:38.969Z,1017.3
2017-10-31T11:40:38.954Z,1017.27
2017-10-31T11:41:38.948Z,1017.29
2017-10-31T11:42:38.921Z,1017.28
2017-10-31T11:43:38.912Z,1017.28
2017-10-31T11:44:38.894Z,1017.28
2017-10-31T11:45:38.874Z,1017.3
2017-10-31T11:46:38.858Z,1017.28
2017-10-31T11:47:38.848Z,1017.28
2017-10-31T11:48:38.825Z,1017.29
2017-10-31T11:49:38.812Z,1017.27
2017-10-31T11:50:38.794Z,1017.25
2017-10-31T11:51:38.785Z,1017.24
2017-10-31T11:52:38.763Z,1017.23
2017-10-31T11:53:38.749Z,1017.2
2017-10-31T11:54:38.732Z,1017.21
2017-10-31T11:55:38.729Z,1017.19
2017-10-31T11:56:38.707Z,1017.21
2017-10-31T11:57:38.686Z,1017.16
2017-10-31T11:58:38.669Z,1017.18
2017-10-31T11:59:38.654Z,1017.19
2017-10-31T12:00:38.638Z,1017.19
2017-10-31T12:01:38.622Z,1017.18
2017-10-31T12:02:38.608Z,1017.14
2017-10-31T12:03:38.593Z,1017.13
2017-10-31T12:04:38.582Z,1017.1
2017-10-31T12:05:38.560Z,1017.08
2017-10-31T12:06:38.546Z,1017.04
2017-10-31T12:07:38.529Z,1017.07
2017-10-31T12:08:38.515Z,1017.07
2017-10-31T12:09:38.498Z,1017.05